sensor_id;sensor_type;location;lat;lon;timestamp;temperature;humidity
13794;DHT22;31160;49.500;7.772;2022-07-23T00:00:14;20.60;99.90
13794;DHT22;31160;49.500;7.772;2022-07-23T00:02:41;20.30;99.90
13794;DHT22;31160;49.500;7.772;2022-07-23T00:05:09;20.20;99.90
13794;DHT22;31160;49.500;7.772;2022-07-23T00:07:36;20.10;99.90
13794;DHT22;31160;49.500;7.772;2022-07-23T00:10:03;20.10;99.90
13794;DHT22;31160;49.500;7.772;2022-07-23T00:12:30;20.20;99.90
13794;DHT22;31160;49.500;7.772;2022-07-23T00:14:57;20.20;99.90
13794;DHT22;31160;49.500;7.772;2022-07-23T00:17:24;20.20;99.90
13794;DHT22;31160;49.500;7.772;2022-07-23T00:19:51;20.20;99.90
13794;DHT22;31160;49.500;7.772;2022-07-23T00:22:19;20.30;99.90
13794;DHT22;31160;49.500;7.772;2022-07-23T00:24:46;20.40;99.90
13794;DHT22;31160;49.500;7.772;2022-07-23T00:27:33;20.40;99.90
13794;DHT22;31160;49.500;7.772;2022-07-23T00:29:59;20.40;99.90
13794;DHT22;31160;49.500;7.772;2022-07-23T00:32:26;20.40;99.90
13794;DHT22;31160;49.500;7.772;2022-07-23T00:35:13;20.40;99.90
13794;DHT22;31160;49.500;7.772;2022-07-23T00:37:40;20.50;99.90
13794;DHT22;31160;49.500;7.772;2022-07-23T00:40:07;20.50;99.90
13794;DHT22;31160;49.500;7.772;2022-07-23T00:42:34;20.50;99.90
13794;DHT22;31160;49.500;7.772;2022-07-23T00:45:01;20.50;99.90
13794;DHT22;31160;49.500;7.772;2022-07-23T00:47:28;20.50;99.90
13794;DHT22;31160;49.500;7.772;2022-07-23T00:49:55;20.60;99.90
13794;DHT22;31160;49.500;7.772;2022-07-23T00:52:22;20.60;99.90
13794;DHT22;31160;49.500;7.772;2022-07-23T00:54:49;20.40;99.90
13794;DHT22;31160;49.500;7.772;2022-07-23T00:57:16;20.20;99.90
13794;DHT22;31160;49.500;7.772;2022-07-23T00:59:43;20.10;99.90
13794;DHT22;31160;49.500;7.772;2022-07-23T01:02:11;20.10;99.90
13794;DHT22;31160;49.500;7.772;2022-07-23T01:04:38;20.00;99.90
13794;DHT22;31160;49.500;7.772;2022-07-23T01:07:05;20.00;99.90
13794;DHT22;31160;49.500;7.772;2022-07-23T01:09:32;20.00;99.90
13794;DHT22;31160;49.500;7.772;2022-07-23T01:11:59;20.10;99.90
13794;DHT22;31160;49.500;7.772;2022-07-23T01:14:26;20.10;99.90
13794;DHT22;31160;49.500;7.772;2022-07-23T01:16:53;20.00;99.90
13794;DHT22;31160;49.500;7.772;2022-07-23T01:19:20;20.00;99.90
13794;DHT22;31160;49.500;7.772;2022-07-23T01:21:49;20.10;99.90
13794;DHT22;31160;49.500;7.772;2022-07-23T01:24:17;20.10;99.90
13794;DHT22;31160;49.500;7.772;2022-07-23T01:26:58;20.10;99.90
13794;DHT22;31160;49.500;7.772;2022-07-23T01:29:25;20.20;99.90
13794;DHT22;31160;49.500;7.772;2022-07-23T01:31:54;20.10;99.90
13794;DHT22;31160;49.500;7.772;2022-07-23T01:34:21;20.00;99.90
13794;DHT22;31160;49.500;7.772;2022-07-23T01:36:48;20.00;99.90
13794;DHT22;31160;49.500;7.772;2022-07-23T01:39:16;20.00;99.90
13794;DHT22;31160;49.500;7.772;2022-07-23T01:41:43;20.00;99.90
13794;DHT22;31160;49.500;7.772;2022-07-23T01:44:15;20.00;99.90
13794;DHT22;31160;49.500;7.772;2022-07-23T01:46:43;20.10;99.90
13794;DHT22;31160;49.500;7.772;2022-07-23T01:49:10;20.10;99.90
13794;DHT22;31160;49.500;7.772;2022-07-23T01:51:55;19.80;99.90
13794;DHT22;31160;49.500;7.772;2022-07-23T01:54:33;19.80;99.90
13794;DHT22;31160;49.500;7.772;2022-07-23T01:57:03;19.80;99.90
13794;DHT22;31160;49.500;7.772;2022-07-23T01:59:30;19.80;99.90
13794;DHT22;31160;49.500;7.772;2022-07-23T02:01:57;19.90;99.90
13794;DHT22;31160;49.500;7.772;2022-07-23T02:04:25;19.90;99.90
13794;DHT22;31160;49.500;7.772;2022-07-23T02:06:52;19.80;99.90
13794;DHT22;31160;49.500;7.772;2022-07-23T02:09:19;19.80;99.90
13794;DHT22;31160;49.500;7.772;2022-07-23T02:11:46;19.70;99.90
13794;DHT22;31160;49.500;7.772;2022-07-23T02:14:13;19.70;99.90
13794;DHT22;31160;49.500;7.772;2022-07-23T02:16:40;19.70;99.90
13794;DHT22;31160;49.500;7.772;2022-07-23T02:19:07;19.70;99.90
13794;DHT22;31160;49.500;7.772;2022-07-23T02:21:36;19.70;99.90
13794;DHT22;31160;49.500;7.772;2022-07-23T02:24:04;19.70;99.90
13794;DHT22;31160;49.500;7.772;2022-07-23T02:26:31;19.60;99.90
13794;DHT22;31160;49.500;7.772;2022-07-23T02:29:04;19.50;99.90
13794;DHT22;31160;49.500;7.772;2022-07-23T02:31:32;19.40;99.90
13794;DHT22;31160;49.500;7.772;2022-07-23T02:34:00;19.30;99.90
13794;DHT22;31160;49.500;7.772;2022-07-23T02:36:27;19.20;99.90
13794;DHT22;31160;49.500;7.772;2022-07-23T02:38:55;19.20;99.90
13794;DHT22;31160;49.500;7.772;2022-07-23T02:41:22;19.30;99.90
13794;DHT22;31160;49.500;7.772;2022-07-23T02:43:50;19.30;99.90
13794;DHT22;31160;49.500;7.772;2022-07-23T02:46:17;19.30;99.90
13794;DHT22;31160;49.500;7.772;2022-07-23T02:48:45;19.40;99.90
13794;DHT22;31160;49.500;7.772;2022-07-23T02:51:13;19.40;99.90
13794;DHT22;31160;49.500;7.772;2022-07-23T02:53:47;19.40;99.90
13794;DHT22;31160;49.500;7.772;2022-07-23T02:56:14;19.50;99.90
13794;DHT22;31160;49.500;7.772;2022-07-23T02:58:41;19.50;99.90
13794;DHT22;31160;49.500;7.772;2022-07-23T03:01:08;19.50;99.90
13794;DHT22;31160;49.500;7.772;2022-07-23T03:03:35;19.50;99.90
13794;DHT22;31160;49.500;7.772;2022-07-23T03:06:03;19.40;99.90
13794;DHT22;31160;49.500;7.772;2022-07-23T03:08:30;19.40;99.90
13794;DHT22;31160;49.500;7.772;2022-07-23T03:10:56;19.50;99.90
13794;DHT22;31160;49.500;7.772;2022-07-23T03:13:23;19.40;99.90
13794;DHT22;31160;49.500;7.772;2022-07-23T03:15:51;19.50;99.90
13794;DHT22;31160;49.500;7.772;2022-07-23T03:18:18;19.40;99.90
13794;DHT22;31160;49.500;7.772;2022-07-23T03:20:45;19.40;99.90
13794;DHT22;31160;49.500;7.772;2022-07-23T03:23:12;19.50;99.90
13794;DHT22;31160;49.500;7.772;2022-07-23T03:25:39;19.50;99.90
13794;DHT22;31160;49.500;7.772;2022-07-23T03:28:05;19.50;99.90
13794;DHT22;31160;49.500;7.772;2022-07-23T03:30:32;19.50;99.90
13794;DHT22;31160;49.500;7.772;2022-07-23T03:33:00;19.50;99.90
13794;DHT22;31160;49.500;7.772;2022-07-23T03:35:27;19.40;99.90
13794;DHT22;31160;49.500;7.772;2022-07-23T03:38:10;19.20;99.90
13794;DHT22;31160;49.500;7.772;2022-07-23T03:40:39;19.00;99.90
13794;DHT22;31160;49.500;7.772;2022-07-23T03:43:06;19.00;99.90
13794;DHT22;31160;49.500;7.772;2022-07-23T03:45:33;19.00;99.90
13794;DHT22;31160;49.500;7.772;2022-07-23T03:48:00;19.10;99.90
13794;DHT22;31160;49.500;7.772;2022-07-23T03:50:28;19.20;99.90
13794;DHT22;31160;49.500;7.772;2022-07-23T03:52:55;19.20;99.90
13794;DHT22;31160;49.500;7.772;2022-07-23T03:55:22;19.20;99.90
13794;DHT22;31160;49.500;7.772;2022-07-23T03:57:49;19.30;99.90
13794;DHT22;31160;49.500;7.772;2022-07-23T04:00:16;19.30;99.90
13794;DHT22;31160;49.500;7.772;2022-07-23T04:02:44;19.40;99.90
13794;DHT22;31160;49.500;7.772;2022-07-23T04:05:12;19.30;99.90
13794;DHT22;31160;49.500;7.772;2022-07-23T04:07:41;19.30;99.90
13794;DHT22;31160;49.500;7.772;2022-07-23T04:10:08;19.20;99.90
13794;DHT22;31160;49.500;7.772;2022-07-23T04:12:35;19.10;99.90
13794;DHT22;31160;49.500;7.772;2022-07-23T04:15:03;19.10;99.90
13794;DHT22;31160;49.500;7.772;2022-07-23T04:17:31;19.00;99.90
13794;DHT22;31160;49.500;7.772;2022-07-23T04:19:58;19.00;99.90
13794;DHT22;31160;49.500;7.772;2022-07-23T04:22:31;19.10;99.90
13794;DHT22;31160;49.500;7.772;2022-07-23T04:24:58;19.10;99.90
13794;DHT22;31160;49.500;7.772;2022-07-23T04:27:25;19.10;99.90
13794;DHT22;31160;49.500;7.772;2022-07-23T04:29:51;19.10;99.90
13794;DHT22;31160;49.500;7.772;2022-07-23T04:32:18;19.10;99.90
13794;DHT22;31160;49.500;7.772;2022-07-23T04:34:46;19.10;99.90
13794;DHT22;31160;49.500;7.772;2022-07-23T04:37:13;19.10;99.90
13794;DHT22;31160;49.500;7.772;2022-07-23T04:39:40;19.20;99.90
13794;DHT22;31160;49.500;7.772;2022-07-23T04:42:07;19.20;99.90
13794;DHT22;31160;49.500;7.772;2022-07-23T04:44:34;19.20;99.90
13794;DHT22;31160;49.500;7.772;2022-07-23T04:47:03;19.30;99.90
13794;DHT22;31160;49.500;7.772;2022-07-23T04:49:29;19.10;99.90
13794;DHT22;31160;49.500;7.772;2022-07-23T04:51:56;19.10;99.90
13794;DHT22;31160;49.500;7.772;2022-07-23T04:54:23;19.00;99.90
13794;DHT22;31160;49.500;7.772;2022-07-23T04:56:50;18.90;99.90
13794;DHT22;31160;49.500;7.772;2022-07-23T04:59:17;19.00;99.90
13794;DHT22;31160;49.500;7.772;2022-07-23T05:01:47;19.10;99.90
13794;DHT22;31160;49.500;7.772;2022-07-23T05:04:14;19.10;99.90
13794;DHT22;31160;49.500;7.772;2022-07-23T05:06:41;19.10;99.90
13794;DHT22;31160;49.500;7.772;2022-07-23T05:09:08;19.10;99.90
13794;DHT22;31160;49.500;7.772;2022-07-23T05:11:35;19.10;99.90
13794;DHT22;31160;49.500;7.772;2022-07-23T05:14:02;19.20;99.90
13794;DHT22;31160;49.500;7.772;2022-07-23T05:16:28;19.30;99.90
13794;DHT22;31160;49.500;7.772;2022-07-23T05:19:00;19.30;99.90
13794;DHT22;31160;49.500;7.772;2022-07-23T05:21:29;19.40;99.90
13794;DHT22;31160;49.500;7.772;2022-07-23T05:23:56;19.50;99.90
13794;DHT22;31160;49.500;7.772;2022-07-23T05:26:23;19.30;99.90
13794;DHT22;31160;49.500;7.772;2022-07-23T05:28:51;19.30;99.90
13794;DHT22;31160;49.500;7.772;2022-07-23T05:31:20;19.40;99.90
13794;DHT22;31160;49.500;7.772;2022-07-23T05:33:47;19.60;99.90
13794;DHT22;31160;49.500;7.772;2022-07-23T05:36:13;19.80;99.90
13794;DHT22;31160;49.500;7.772;2022-07-23T05:38:50;20.20;99.90
13794;DHT22;31160;49.500;7.772;2022-07-23T05:41:17;20.70;99.90
13794;DHT22;31160;49.500;7.772;2022-07-23T05:43:43;20.70;99.90
13794;DHT22;31160;49.500;7.772;2022-07-23T05:46:13;20.60;99.90
13794;DHT22;31160;49.500;7.772;2022-07-23T05:48:42;20.70;99.90
13794;DHT22;31160;49.500;7.772;2022-07-23T05:51:23;20.70;99.90
13794;DHT22;31160;49.500;7.772;2022-07-23T05:53:51;20.80;99.90
13794;DHT22;31160;49.500;7.772;2022-07-23T05:56:24;21.30;99.90
13794;DHT22;31160;49.500;7.772;2022-07-23T05:58:52;21.60;99.90
13794;DHT22;31160;49.500;7.772;2022-07-23T06:01:19;21.90;99.90
13794;DHT22;31160;49.500;7.772;2022-07-23T06:03:53;22.10;99.90
13794;DHT22;31160;49.500;7.772;2022-07-23T06:06:20;23.30;99.90
13794;DHT22;31160;49.500;7.772;2022-07-23T06:08:47;24.20;99.90
13794;DHT22;31160;49.500;7.772;2022-07-23T06:11:14;24.80;99.90
13794;DHT22;31160;49.500;7.772;2022-07-23T06:13:41;25.70;99.90
13794;DHT22;31160;49.500;7.772;2022-07-23T06:16:07;25.80;99.90
13794;DHT22;31160;49.500;7.772;2022-07-23T06:18:34;25.30;99.90
13794;DHT22;31160;49.500;7.772;2022-07-23T06:21:01;24.70;99.90
13794;DHT22;31160;49.500;7.772;2022-07-23T06:23:48;24.00;99.90
13794;DHT22;31160;49.500;7.772;2022-07-23T06:26:15;23.40;99.90
13794;DHT22;31160;49.500;7.772;2022-07-23T06:28:41;22.90;99.90
13794;DHT22;31160;49.500;7.772;2022-07-23T06:31:08;22.60;99.90
13794;DHT22;31160;49.500;7.772;2022-07-23T06:33:36;22.30;99.90
13794;DHT22;31160;49.500;7.772;2022-07-23T06:36:03;22.30;99.90
13794;DHT22;31160;49.500;7.772;2022-07-23T06:38:32;22.00;99.90
13794;DHT22;31160;49.500;7.772;2022-07-23T06:41:00;22.20;99.90
13794;DHT22;31160;49.500;7.772;2022-07-23T06:43:26;22.50;99.90
13794;DHT22;31160;49.500;7.772;2022-07-23T06:45:54;22.70;99.90
13794;DHT22;31160;49.500;7.772;2022-07-23T06:48:21;22.80;99.90
13794;DHT22;31160;49.500;7.772;2022-07-23T06:50:49;22.90;99.90
13794;DHT22;31160;49.500;7.772;2022-07-23T06:53:16;23.00;99.90
13794;DHT22;31160;49.500;7.772;2022-07-23T06:55:43;23.20;99.90
13794;DHT22;31160;49.500;7.772;2022-07-23T06:58:11;23.40;99.90
13794;DHT22;31160;49.500;7.772;2022-07-23T07:00:38;23.60;99.90
13794;DHT22;31160;49.500;7.772;2022-07-23T07:03:05;23.80;99.90
13794;DHT22;31160;49.500;7.772;2022-07-23T07:05:32;24.00;99.90
13794;DHT22;31160;49.500;7.772;2022-07-23T07:07:59;24.00;99.90
13794;DHT22;31160;49.500;7.772;2022-07-23T07:10:25;23.90;99.90
13794;DHT22;31160;49.500;7.772;2022-07-23T07:12:52;24.00;99.90
13794;DHT22;31160;49.500;7.772;2022-07-23T07:15:19;24.10;99.90
13794;DHT22;31160;49.500;7.772;2022-07-23T07:17:45;24.30;99.90
13794;DHT22;31160;49.500;7.772;2022-07-23T07:20:12;24.20;99.90
13794;DHT22;31160;49.500;7.772;2022-07-23T07:22:39;24.40;99.90
13794;DHT22;31160;49.500;7.772;2022-07-23T07:25:06;24.50;99.90
13794;DHT22;31160;49.500;7.772;2022-07-23T07:27:33;24.20;99.90
13794;DHT22;31160;49.500;7.772;2022-07-23T07:30:01;23.80;99.90
13794;DHT22;31160;49.500;7.772;2022-07-23T07:32:27;23.90;99.90
13794;DHT22;31160;49.500;7.772;2022-07-23T07:35:14;24.00;99.90
13794;DHT22;31160;49.500;7.772;2022-07-23T07:37:41;24.20;99.90
13794;DHT22;31160;49.500;7.772;2022-07-23T07:40:08;24.00;99.90
13794;DHT22;31160;49.500;7.772;2022-07-23T07:42:43;23.80;99.90
13794;DHT22;31160;49.500;7.772;2022-07-23T07:45:10;23.90;99.90
13794;DHT22;31160;49.500;7.772;2022-07-23T07:47:37;24.20;99.90
13794;DHT22;31160;49.500;7.772;2022-07-23T07:50:04;24.80;99.90
13794;DHT22;31160;49.500;7.772;2022-07-23T07:52:32;25.40;99.90
13794;DHT22;31160;49.500;7.772;2022-07-23T07:54:59;25.90;99.60
13794;DHT22;31160;49.500;7.772;2022-07-23T07:57:26;26.20;98.70
13794;DHT22;31160;49.500;7.772;2022-07-23T07:59:57;26.30;98.30
13794;DHT22;31160;49.500;7.772;2022-07-23T08:02:46;26.50;97.90
13794;DHT22;31160;49.500;7.772;2022-07-23T08:05:14;26.40;97.60
13794;DHT22;31160;49.500;7.772;2022-07-23T08:07:41;26.30;97.40
13794;DHT22;31160;49.500;7.772;2022-07-23T08:10:08;26.20;97.70
13794;DHT22;31160;49.500;7.772;2022-07-23T08:12:45;26.20;98.00
13794;DHT22;31160;49.500;7.772;2022-07-23T08:15:14;26.60;97.30
13794;DHT22;31160;49.500;7.772;2022-07-23T08:17:43;26.60;97.30
13794;DHT22;31160;49.500;7.772;2022-07-23T08:20:11;26.10;97.70
13794;DHT22;31160;49.500;7.772;2022-07-23T08:22:59;25.70;98.30
13794;DHT22;31160;49.500;7.772;2022-07-23T08:25:33;25.10;99.20
13794;DHT22;31160;49.500;7.772;2022-07-23T08:28:01;25.10;99.40
13794;DHT22;31160;49.500;7.772;2022-07-23T08:30:29;24.90;99.80
13794;DHT22;31160;49.500;7.772;2022-07-23T08:35:47;25.40;99.00
13794;DHT22;31160;49.500;7.772;2022-07-23T08:38:17;25.50;99.20
13794;DHT22;31160;49.500;7.772;2022-07-23T08:40:49;25.70;98.60
13794;DHT22;31160;49.500;7.772;2022-07-23T08:43:18;25.50;98.60
13794;DHT22;31160;49.500;7.772;2022-07-23T08:45:47;25.60;98.20
13794;DHT22;31160;49.500;7.772;2022-07-23T08:48:17;25.70;98.40
13794;DHT22;31160;49.500;7.772;2022-07-23T08:50:48;25.80;98.30
13794;DHT22;31160;49.500;7.772;2022-07-23T08:53:16;26.10;97.70
13794;DHT22;31160;49.500;7.772;2022-07-23T08:55:48;26.40;97.10
13794;DHT22;31160;49.500;7.772;2022-07-23T08:58:15;26.80;96.20
13794;DHT22;31160;49.500;7.772;2022-07-23T09:00:42;27.10;95.80
13794;DHT22;31160;49.500;7.772;2022-07-23T09:03:20;27.20;95.60
13794;DHT22;31160;49.500;7.772;2022-07-23T09:05:50;27.20;95.10
13794;DHT22;31160;49.500;7.772;2022-07-23T09:08:19;27.10;95.20
13794;DHT22;31160;49.500;7.772;2022-07-23T09:10:54;27.00;94.80
13794;DHT22;31160;49.500;7.772;2022-07-23T09:16:05;26.20;96.20
13794;DHT22;31160;49.500;7.772;2022-07-23T09:18:35;26.30;95.90
13794;DHT22;31160;49.500;7.772;2022-07-23T09:21:18;26.60;95.70
13794;DHT22;31160;49.500;7.772;2022-07-23T09:26:40;26.60;95.00
13794;DHT22;31160;49.500;7.772;2022-07-23T09:29:21;26.70;94.80
13794;DHT22;31160;49.500;7.772;2022-07-23T09:34:25;26.60;94.90
13794;DHT22;31160;49.500;7.772;2022-07-23T09:36:57;26.50;95.10
13794;DHT22;31160;49.500;7.772;2022-07-23T09:39:33;26.50;95.00
13794;DHT22;31160;49.500;7.772;2022-07-23T09:42:25;26.60;94.60
13794;DHT22;31160;49.500;7.772;2022-07-23T09:44:56;26.70;94.40
13794;DHT22;31160;49.500;7.772;2022-07-23T09:47:25;26.90;94.40
13794;DHT22;31160;49.500;7.772;2022-07-23T09:50:05;26.90;93.90
13794;DHT22;31160;49.500;7.772;2022-07-23T09:52:48;26.90;93.70
13794;DHT22;31160;49.500;7.772;2022-07-23T09:55:17;27.00;93.40
13794;DHT22;31160;49.500;7.772;2022-07-23T09:57:45;27.20;94.00
13794;DHT22;31160;49.500;7.772;2022-07-23T10:00:16;27.40;92.70
13794;DHT22;31160;49.500;7.772;2022-07-23T10:02:46;27.60;91.90
13794;DHT22;31160;49.500;7.772;2022-07-23T10:05:29;27.50;91.70
13794;DHT22;31160;49.500;7.772;2022-07-23T10:08:18;27.50;92.20
13794;DHT22;31160;49.500;7.772;2022-07-23T10:10:48;27.50;91.90
13794;DHT22;31160;49.500;7.772;2022-07-23T10:13:16;27.50;92.00
13794;DHT22;31160;49.500;7.772;2022-07-23T10:16:05;27.70;91.80
13794;DHT22;31160;49.500;7.772;2022-07-23T10:18:32;28.20;90.90
13794;DHT22;31160;49.500;7.772;2022-07-23T10:20:59;28.10;91.00
13794;DHT22;31160;49.500;7.772;2022-07-23T10:23:42;27.90;90.40
13794;DHT22;31160;49.500;7.772;2022-07-23T10:26:20;28.00;90.10
13794;DHT22;31160;49.500;7.772;2022-07-23T10:32:22;28.90;89.20
13794;DHT22;31160;49.500;7.772;2022-07-23T10:37:48;29.80;85.40
13794;DHT22;31160;49.500;7.772;2022-07-23T10:40:20;29.80;84.60
13794;DHT22;31160;49.500;7.772;2022-07-23T10:42:49;29.70;83.00
13794;DHT22;31160;49.500;7.772;2022-07-23T10:45:48;29.00;84.40
13794;DHT22;31160;49.500;7.772;2022-07-23T10:48:26;29.10;84.70
13794;DHT22;31160;49.500;7.772;2022-07-23T10:51:15;29.20;84.10
13794;DHT22;31160;49.500;7.772;2022-07-23T10:59:22;29.40;83.40
13794;DHT22;31160;49.500;7.772;2022-07-23T11:01:50;29.20;82.60
13794;DHT22;31160;49.500;7.772;2022-07-23T11:04:17;29.50;82.40
13794;DHT22;31160;49.500;7.772;2022-07-23T11:09:32;29.00;81.80
13794;DHT22;31160;49.500;7.772;2022-07-23T11:15:13;28.70;83.20
13794;DHT22;31160;49.500;7.772;2022-07-23T11:22:49;28.80;82.00
13794;DHT22;31160;49.500;7.772;2022-07-23T11:27:50;28.10;83.00
13794;DHT22;31160;49.500;7.772;2022-07-23T11:32:54;28.20;84.00
13794;DHT22;31160;49.500;7.772;2022-07-23T11:35:43;28.60;83.20
13794;DHT22;31160;49.500;7.772;2022-07-23T11:38:18;28.60;83.10
13794;DHT22;31160;49.500;7.772;2022-07-23T11:40:48;28.90;82.50
13794;DHT22;31160;49.500;7.772;2022-07-23T11:43:15;28.90;81.90
13794;DHT22;31160;49.500;7.772;2022-07-23T11:45:48;29.00;81.50
13794;DHT22;31160;49.500;7.772;2022-07-23T11:48:24;29.30;80.90
13794;DHT22;31160;49.500;7.772;2022-07-23T11:50:52;29.30;79.20
13794;DHT22;31160;49.500;7.772;2022-07-23T11:53:31;29.50;78.00
13794;DHT22;31160;49.500;7.772;2022-07-23T11:56:09;29.80;77.00
13794;DHT22;31160;49.500;7.772;2022-07-23T11:58:37;30.20;76.10
13794;DHT22;31160;49.500;7.772;2022-07-23T12:01:04;29.50;77.40
13794;DHT22;31160;49.500;7.772;2022-07-23T12:03:31;29.30;77.50
13794;DHT22;31160;49.500;7.772;2022-07-23T12:05:59;29.80;77.90
13794;DHT22;31160;49.500;7.772;2022-07-23T12:08:27;29.80;76.50
13794;DHT22;31160;49.500;7.772;2022-07-23T12:10:53;30.20;76.30
13794;DHT22;31160;49.500;7.772;2022-07-23T12:13:21;30.30;76.20
13794;DHT22;31160;49.500;7.772;2022-07-23T12:15:56;30.60;74.30
13794;DHT22;31160;49.500;7.772;2022-07-23T12:18:24;31.00;73.20
13794;DHT22;31160;49.500;7.772;2022-07-23T12:20:53;31.40;72.50
13794;DHT22;31160;49.500;7.772;2022-07-23T12:23:22;31.40;70.80
13794;DHT22;31160;49.500;7.772;2022-07-23T12:25:50;31.30;70.20
13794;DHT22;31160;49.500;7.772;2022-07-23T12:28:26;31.30;71.20
13794;DHT22;31160;49.500;7.772;2022-07-23T12:30:54;31.20;71.10
13794;DHT22;31160;49.500;7.772;2022-07-23T12:33:24;31.00;70.80
13794;DHT22;31160;49.500;7.772;2022-07-23T12:35:53;30.50;72.00
13794;DHT22;31160;49.500;7.772;2022-07-23T12:38:22;30.50;72.40
13794;DHT22;31160;49.500;7.772;2022-07-23T12:40:56;29.90;72.80
13794;DHT22;31160;49.500;7.772;2022-07-23T12:43:28;29.70;72.60
13794;DHT22;31160;49.500;7.772;2022-07-23T12:46:18;29.70;72.40
13794;DHT22;31160;49.500;7.772;2022-07-23T12:48:53;29.60;73.10
13794;DHT22;31160;49.500;7.772;2022-07-23T12:51:26;29.50;72.20
13794;DHT22;31160;49.500;7.772;2022-07-23T12:56:33;29.10;72.60
13794;DHT22;31160;49.500;7.772;2022-07-23T13:01:33;28.80;73.40
13794;DHT22;31160;49.500;7.772;2022-07-23T13:04:10;28.50;73.80
13794;DHT22;31160;49.500;7.772;2022-07-23T13:06:42;28.10;74.80
13794;DHT22;31160;49.500;7.772;2022-07-23T13:09:16;28.30;75.00
13794;DHT22;31160;49.500;7.772;2022-07-23T13:11:44;28.70;75.70
13794;DHT22;31160;49.500;7.772;2022-07-23T13:14:15;29.10;74.10
13794;DHT22;31160;49.500;7.772;2022-07-23T13:16:43;29.40;72.30
13794;DHT22;31160;49.500;7.772;2022-07-23T13:19:10;29.50;72.30
13794;DHT22;31160;49.500;7.772;2022-07-23T13:21:38;29.50;72.50
13794;DHT22;31160;49.500;7.772;2022-07-23T13:24:07;29.30;72.60
13794;DHT22;31160;49.500;7.772;2022-07-23T13:26:35;29.00;71.80
13794;DHT22;31160;49.500;7.772;2022-07-23T13:29:04;28.30;73.30
13794;DHT22;31160;49.500;7.772;2022-07-23T13:31:37;28.20;74.70
13794;DHT22;31160;49.500;7.772;2022-07-23T13:34:05;28.20;75.00
13794;DHT22;31160;49.500;7.772;2022-07-23T13:36:34;28.40;75.60
13794;DHT22;31160;49.500;7.772;2022-07-23T13:39:01;28.80;72.90
13794;DHT22;31160;49.500;7.772;2022-07-23T13:41:29;28.90;72.60
13794;DHT22;31160;49.500;7.772;2022-07-23T13:43:56;29.00;72.70
13794;DHT22;31160;49.500;7.772;2022-07-23T13:46:24;29.20;72.00
13794;DHT22;31160;49.500;7.772;2022-07-23T13:48:50;29.50;71.40
13794;DHT22;31160;49.500;7.772;2022-07-23T13:51:17;29.80;71.00
13794;DHT22;31160;49.500;7.772;2022-07-23T13:53:46;29.90;69.60
13794;DHT22;31160;49.500;7.772;2022-07-23T13:56:13;30.10;69.50
13794;DHT22;31160;49.500;7.772;2022-07-23T13:58:40;30.20;67.80
13794;DHT22;31160;49.500;7.772;2022-07-23T14:01:07;29.90;68.90
13794;DHT22;31160;49.500;7.772;2022-07-23T14:03:34;30.10;69.00
13794;DHT22;31160;49.500;7.772;2022-07-23T14:06:01;30.40;67.30
13794;DHT22;31160;49.500;7.772;2022-07-23T14:08:27;30.20;67.40
13794;DHT22;31160;49.500;7.772;2022-07-23T14:10:55;30.10;67.50
13794;DHT22;31160;49.500;7.772;2022-07-23T14:13:25;29.90;67.90
13794;DHT22;31160;49.500;7.772;2022-07-23T14:15:52;29.60;68.60
13794;DHT22;31160;49.500;7.772;2022-07-23T14:18:18;29.60;67.20
13794;DHT22;31160;49.500;7.772;2022-07-23T14:20:47;29.80;67.30
13794;DHT22;31160;49.500;7.772;2022-07-23T14:23:14;29.90;67.30
13794;DHT22;31160;49.500;7.772;2022-07-23T14:25:41;29.90;67.30
13794;DHT22;31160;49.500;7.772;2022-07-23T14:28:08;30.00;65.50
13794;DHT22;31160;49.500;7.772;2022-07-23T14:30:35;29.60;66.90
13794;DHT22;31160;49.500;7.772;2022-07-23T14:33:02;29.20;66.50
13794;DHT22;31160;49.500;7.772;2022-07-23T14:35:29;28.90;68.20
13794;DHT22;31160;49.500;7.772;2022-07-23T14:37:57;28.70;69.70
13794;DHT22;31160;49.500;7.772;2022-07-23T14:40:24;28.70;68.80
13794;DHT22;31160;49.500;7.772;2022-07-23T14:42:50;28.70;69.40
13794;DHT22;31160;49.500;7.772;2022-07-23T14:45:17;28.80;68.50
13794;DHT22;31160;49.500;7.772;2022-07-23T14:47:46;28.90;68.40
13794;DHT22;31160;49.500;7.772;2022-07-23T14:50:14;29.00;68.80
13794;DHT22;31160;49.500;7.772;2022-07-23T14:52:42;29.20;68.30
13794;DHT22;31160;49.500;7.772;2022-07-23T14:55:08;29.50;67.30
13794;DHT22;31160;49.500;7.772;2022-07-23T14:57:35;29.70;66.40
13794;DHT22;31160;49.500;7.772;2022-07-23T15:00:04;29.70;66.80
13794;DHT22;31160;49.500;7.772;2022-07-23T15:02:31;29.90;66.40
13794;DHT22;31160;49.500;7.772;2022-07-23T15:04:58;30.00;66.30
13794;DHT22;31160;49.500;7.772;2022-07-23T15:07:28;29.90;66.10
13794;DHT22;31160;49.500;7.772;2022-07-23T15:09:58;29.80;66.80
13794;DHT22;31160;49.500;7.772;2022-07-23T15:12:25;29.80;66.40
13794;DHT22;31160;49.500;7.772;2022-07-23T15:14:52;29.60;66.30
13794;DHT22;31160;49.500;7.772;2022-07-23T15:17:19;29.50;66.20
13794;DHT22;31160;49.500;7.772;2022-07-23T15:19:47;29.40;67.30
13794;DHT22;31160;49.500;7.772;2022-07-23T15:22:15;29.30;68.10
13794;DHT22;31160;49.500;7.772;2022-07-23T15:24:42;29.20;66.90
13794;DHT22;31160;49.500;7.772;2022-07-23T15:27:09;29.20;66.60
13794;DHT22;31160;49.500;7.772;2022-07-23T15:29:36;29.20;66.60
13794;DHT22;31160;49.500;7.772;2022-07-23T15:32:03;29.30;66.80
13794;DHT22;31160;49.500;7.772;2022-07-23T15:34:30;29.30;66.20
13794;DHT22;31160;49.500;7.772;2022-07-23T15:37:00;29.20;66.70
13794;DHT22;31160;49.500;7.772;2022-07-23T15:39:27;29.10;67.00
13794;DHT22;31160;49.500;7.772;2022-07-23T15:41:55;28.80;67.40
13794;DHT22;31160;49.500;7.772;2022-07-23T15:44:24;28.70;67.10
13794;DHT22;31160;49.500;7.772;2022-07-23T15:46:56;28.50;67.30
13794;DHT22;31160;49.500;7.772;2022-07-23T15:49:23;28.60;67.30
13794;DHT22;31160;49.500;7.772;2022-07-23T15:51:50;28.50;67.60
13794;DHT22;31160;49.500;7.772;2022-07-23T15:54:16;28.60;66.70
13794;DHT22;31160;49.500;7.772;2022-07-23T15:56:44;28.60;67.00
13794;DHT22;31160;49.500;7.772;2022-07-23T15:59:11;28.60;66.40
13794;DHT22;31160;49.500;7.772;2022-07-23T16:01:38;28.70;66.30
13794;DHT22;31160;49.500;7.772;2022-07-23T16:04:05;28.70;65.80
13794;DHT22;31160;49.500;7.772;2022-07-23T16:06:32;28.70;67.10
13794;DHT22;31160;49.500;7.772;2022-07-23T16:09:00;28.60;66.20
13794;DHT22;31160;49.500;7.772;2022-07-23T16:11:31;28.60;66.30
13794;DHT22;31160;49.500;7.772;2022-07-23T16:13:58;28.60;66.40
13794;DHT22;31160;49.500;7.772;2022-07-23T16:16:26;28.70;65.40
13794;DHT22;31160;49.500;7.772;2022-07-23T16:18:54;28.70;65.60
13794;DHT22;31160;49.500;7.772;2022-07-23T16:21:21;28.60;67.30
13794;DHT22;31160;49.500;7.772;2022-07-23T16:23:48;28.60;64.90
13794;DHT22;31160;49.500;7.772;2022-07-23T16:26:16;28.40;64.90